Time;durP1;ratioP1;P1;durP2;ratioP2;P2;SDS_P1;SDS_P2;PMS_P1;PMS_P2;Temp;Humidity;BMP_temperature;BMP_pressure;BME280_temperature;BME280_humidity;BME280_pressure;Samples;Min_cycle;Max_cycle;Signal;HPM_P1;HPM_P2
2023/05/16 00:01:56;;;;;;;0.10;0.10;;;9.90;99.90;;;;;;4999795;28;20046;-66
2023/05/16 00:04:22;;;;;;;0.08;0.08;;;9.90;99.90;;;;;;5005673;28;20056;-66
2023/05/16 00:06:48;;;;;;;0.00;0.00;;;9.90;99.90;;;;;;5012148;28;20045;-65
2023/05/16 00:09:13;;;;;;;4.10;1.90;;;9.90;99.90;;;;;;5015463;28;20041;-65
2023/05/16 00:11:39;;;;;;;0.00;0.00;;;9.90;99.90;;;;;;5004066;28;20100;-66
2023/05/16 00:14:04;;;;;;;1.98;0.68;;;10.00;99.90;;;;;;5007714;28;20038;-66
2023/05/16 00:16:30;;;;;;;0.10;0.10;;;10.00;99.90;;;;;;4985627;28;20061;-65
2023/05/16 00:18:59;;;;;;;0.00;0.00;;;10.00;99.90;;;;;;5007481;28;20042;-66
2023/05/16 00:21:25;;;;;;;5.85;0.85;;;9.90;99.90;;;;;;5000255;28;20149;-65
2023/05/16 00:23:51;;;;;;;1.65;1.55;;;9.90;99.90;;;;;;4999153;28;20053;-65
2023/05/16 00:26:17;;;;;;;0.10;0.10;;;9.90;99.90;;;;;;5000653;28;20050;-65
2023/05/16 00:28:43;;;;;;;0.10;0.10;;;9.90;99.90;;;;;;5006766;28;20057;-65
2023/05/16 00:31:09;;;;;;;0.57;0.57;;;9.90;99.90;;;;;;5006862;28;20442;-66
2023/05/16 00:33:34;;;;;;;1.35;0.90;;;9.90;99.90;;;;;;4997455;28;20076;-66
2023/05/16 00:36:00;;;;;;;0.10;0.10;;;9.80;99.90;;;;;;5010368;28;20077;-66
2023/05/16 00:38:26;;;;;;;0.95;0.95;;;9.90;99.90;;;;;;5005879;28;20132;-66
2023/05/16 00:40:52;;;;;;;0.10;0.10;;;9.90;99.90;;;;;;5005001;28;20053;-65
2023/05/16 00:43:17;;;;;;;0.15;0.15;;;9.90;99.90;;;;;;4999735;28;20054;-65
2023/05/16 00:45:43;;;;;;;0.20;0.20;;;9.90;99.90;;;;;;5002885;28;20082;-66
2023/05/16 00:48:11;;;;;;;0.10;0.10;;;9.80;99.90;;;;;;5005721;28;20046;-66
2023/05/16 00:50:36;;;;;;;1.52;0.75;;;9.90;99.90;;;;;;5007513;28;20042;-65
2023/05/16 00:53:03;;;;;;;0.10;0.10;;;9.80;99.90;;;;;;5004769;28;20552;-66
2023/05/16 00:55:28;;;;;;;1.13;1.10;;;9.80;99.90;;;;;;5010636;28;20084;-66
2023/05/16 00:57:55;;;;;;;0.10;0.10;;;9.80;99.90;;;;;;5019909;28;20042;-66
2023/05/16 01:00:21;;;;;;;0.00;0.00;;;9.80;99.90;;;;;;4997693;28;20050;-65
2023/05/16 01:02:47;;;;;;;0.52;0.52;;;9.80;99.90;;;;;;5001058;28;20045;-66
2023/05/16 01:05:12;;;;;;;0.00;0.00;;;9.80;99.90;;;;;;5003218;28;20049;-66
2023/05/16 01:07:38;;;;;;;0.20;0.20;;;9.80;99.90;;;;;;5022183;28;20030;-66
2023/05/16 01:10:06;;;;;;;0.10;0.10;;;9.80;99.90;;;;;;5001396;28;20125;-65
2023/05/16 01:12:46;;;;;;;0.63;0.47;;;9.80;99.90;;;;;;5015773;28;20429;-66
2023/05/16 01:15:16;;;;;;;0.10;0.10;;;9.70;99.90;;;;;;5010617;28;20136;-65
2023/05/16 01:17:59;;;;;;;3.92;0.57;;;9.70;99.90;;;;;;4997484;28;20046;-65
2023/05/16 01:20:48;;;;;;;0.32;0.32;;;9.70;99.90;;;;;;5007703;28;20359;-66
2023/05/16 01:23:42;;;;;;;0.10;0.10;;;9.60;99.90;;;;;;5001729;28;20046;-66
2023/05/16 01:26:07;;;;;;;0.10;0.10;;;9.60;99.90;;;;;;5002384;28;20061;-65
2023/05/16 01:28:34;;;;;;;1.10;0.43;;;9.60;99.90;;;;;;5005882;28;20057;-65
2023/05/16 01:31:00;;;;;;;0.00;0.00;;;9.60;99.90;;;;;;4982884;28;20568;-66
2023/05/16 01:33:25;;;;;;;0.00;0.00;;;9.60;99.90;;;;;;5009474;28;20082;-65
2023/05/16 01:35:54;;;;;;;0.60;0.60;;;9.60;99.90;;;;;;5010463;28;20127;-65
2023/05/16 01:38:28;;;;;;;0.10;0.10;;;9.60;99.90;;;;;;5006744;28;20048;-65
2023/05/16 01:41:15;;;;;;;0.40;0.40;;;9.60;99.90;;;;;;5005736;28;20042;-66
2023/05/16 01:43:47;;;;;;;0.15;0.15;;;9.60;99.90;;;;;;4997789;28;20129;-66
2023/05/16 01:46:23;;;;;;;0.00;0.00;;;9.50;99.90;;;;;;4986994;28;20057;-65
2023/05/16 01:49:15;;;;;;;0.10;0.10;;;9.50;99.90;;;;;;5005309;28;20054;-65
2023/05/16 01:51:41;;;;;;;0.45;0.45;;;9.50;99.90;;;;;;5005663;28;20117;-65
2023/05/16 01:54:11;;;;;;;0.98;0.35;;;9.50;99.90;;;;;;4999819;28;20477;-65
2023/05/16 01:56:37;;;;;;;0.10;0.10;;;9.50;99.90;;;;;;4996258;28;20034;-65
2023/05/16 01:59:04;;;;;;;0.10;0.10;;;9.50;99.90;;;;;;5017599;28;20041;-65
2023/05/16 02:01:30;;;;;;;0.10;0.10;;;9.50;99.90;;;;;;5003175;28;20043;-65
2023/05/16 02:03:56;;;;;;;0.22;0.22;;;9.50;99.90;;;;;;5001599;28;20037;-66
2023/05/16 02:06:23;;;;;;;0.43;0.43;;;9.40;99.90;;;;;;5005580;28;20180;-65
2023/05/16 02:08:48;;;;;;;0.00;0.00;;;9.50;99.90;;;;;;5008989;28;20124;-65
2023/05/16 02:11:14;;;;;;;0.10;0.10;;;9.40;99.90;;;;;;5005307;28;20100;-65
2023/05/16 02:13:39;;;;;;;0.10;0.10;;;9.40;99.90;;;;;;5005145;28;20053;-65
2023/05/16 02:16:05;;;;;;;0.65;0.65;;;9.50;99.90;;;;;;5017844;28;20113;-65
2023/05/16 02:18:31;;;;;;;0.10;0.10;;;9.50;99.90;;;;;;5003866;28;20045;-65
2023/05/16 02:20:57;;;;;;;11.85;1.85;;;9.50;99.90;;;;;;4998890;28;20042;-65
2023/05/16 02:23:22;;;;;;;0.43;0.43;;;9.50;99.90;;;;;;4999025;28;20128;-65
2023/05/16 02:25:48;;;;;;;0.10;0.10;;;9.40;99.90;;;;;;5010718;28;20058;-65
2023/05/16 02:28:13;;;;;;;0.00;0.00;;;9.40;99.90;;;;;;4997958;28;20053;-65
2023/05/16 02:30:39;;;;;;;0.10;0.10;;;9.40;99.90;;;;;;5008390;28;20072;-65
2023/05/16 02:33:04;;;;;;;1.15;1.08;;;9.50;99.90;;;;;;4993155;28;20042;-65
2023/05/16 02:35:30;;;;;;;0.00;0.00;;;9.40;99.90;;;;;;5000425;28;20046;-65
2023/05/16 02:37:56;;;;;;;0.00;0.00;;;9.40;99.90;;;;;;5008243;28;20124;-65
2023/05/16 02:40:21;;;;;;;0.55;0.55;;;9.40;99.90;;;;;;5008239;28;20045;-65
2023/05/16 02:42:47;;;;;;;0.10;0.10;;;9.30;99.90;;;;;;4983167;28;20049;-65
2023/05/16 02:45:12;;;;;;;0.10;0.10;;;9.30;99.90;;;;;;5009682;28;20621;-66
2023/05/16 02:47:38;;;;;;;0.08;0.08;;;9.30;99.90;;;;;;5004003;28;20453;-65
2023/05/16 02:50:04;;;;;;;0.00;0.00;;;9.20;99.90;;;;;;5005106;28;20030;-65
2023/05/16 02:52:30;;;;;;;0.00;0.00;;;9.20;99.90;;;;;;5002787;28;20414;-64
2023/05/16 02:54:56;;;;;;;0.00;0.00;;;9.20;99.90;;;;;;5005463;28;20038;-64
2023/05/16 02:57:21;;;;;;;0.10;0.10;;;9.20;99.90;;;;;;5009009;28;20512;-64
2023/05/16 02:59:47;;;;;;;0.10;0.10;;;9.20;99.90;;;;;;5011376;28;20049;-65
2023/05/16 03:02:13;;;;;;;0.00;0.00;;;9.20;99.90;;;;;;4993650;28;20080;-65
2023/05/16 03:04:38;;;;;;;0.20;0.20;;;9.20;99.90;;;;;;5004596;28;20410;-66
2023/05/16 03:07:04;;;;;;;0.57;0.57;;;9.20;99.90;;;;;;5006910;28;20042;-65
2023/05/16 03:09:30;;;;;;;0.10;0.10;;;9.20;99.90;;;;;;4999665;28;20078;-65
2023/05/16 03:11:55;;;;;;;0.50;0.50;;;9.10;99.90;;;;;;5007228;28;20097;-66
2023/05/16 03:14:21;;;;;;;0.20;0.20;;;9.20;99.90;;;;;;5007349;28;20497;-65
2023/05/16 03:16:47;;;;;;;0.10;0.10;;;9.20;99.90;;;;;;4989839;28;20069;-65
2023/05/16 03:19:12;;;;;;;0.10;0.10;;;9.20;99.90;;;;;;5002542;28;20100;-65
2023/05/16 03:21:38;;;;;;;0.00;0.00;;;9.20;99.90;;;;;;5003382;28;20494;-65
2023/05/16 03:24:04;;;;;;;0.00;0.00;;;9.20;99.90;;;;;;5008276;28;20103;-65
2023/05/16 03:26:30;;;;;;;0.30;0.30;;;9.10;99.90;;;;;;5005621;28;20046;-65
2023/05/16 03:28:56;;;;;;;0.32;0.32;;;9.10;99.90;;;;;;5009585;28;20053;-66
2023/05/16 03:31:21;;;;;;;0.10;0.10;;;9.10;99.90;;;;;;5001311;28;20418;-65
2023/05/16 03:33:47;;;;;;;0.10;0.10;;;9.20;99.90;;;;;;4983318;28;20073;-65
2023/05/16 03:36:13;;;;;;;0.28;0.28;;;9.20;99.90;;;;;;4998038;28;20613;-66
2023/05/16 03:38:39;;;;;;;0.10;0.10;;;9.10;99.90;;;;;;5007911;28;20516;-65
2023/05/16 03:41:04;;;;;;;0.40;0.40;;;9.10;99.90;;;;;;4997766;28;20047;-65
2023/05/16 03:43:30;;;;;;;0.10;0.10;;;9.10;99.90;;;;;;5018787;28;20073;-66
2023/05/16 03:45:56;;;;;;;0.00;0.00;;;9.10;99.90;;;;;;5008642;28;20062;-65
2023/05/16 03:48:21;;;;;;;0.10;0.10;;;9.10;99.90;;;;;;5007627;28;20061;-65
2023/05/16 03:50:47;;;;;;;0.28;0.28;;;9.10;99.90;;;;;;5000075;28;20042;-66
2023/05/16 03:53:13;;;;;;;0.13;0.13;;;9.10;99.90;;;;;;5003472;28;20293;-65
2023/05/16 03:55:38;;;;;;;0.10;0.10;;;9.10;99.90;;;;;;5008945;28;20061;-65
2023/05/16 03:58:04;;;;;;;0.30;0.30;;;9.10;99.90;;;;;;5010769;28;20501;-65
2023/05/16 04:00:29;;;;;;;0.10;0.10;;;9.20;99.90;;;;;;5000888;28;20073;-65
2023/05/16 04:02:55;;;;;;;0.00;0.00;;;9.20;99.90;;;;;;5006296;28;20051;-66
2023/05/16 04:05:21;;;;;;;0.10;0.10;;;9.10;99.90;;;;;;4999517;28;20051;-65
2023/05/16 04:07:46;;;;;;;0.10;0.10;;;9.10;99.90;;;;;;5014303;28;20549;-65
2023/05/16 04:10:13;;;;;;;0.10;0.10;;;9.20;99.90;;;;;;5005490;28;20068;-65
2023/05/16 04:12:38;;;;;;;0.00;0.00;;;9.10;99.90;;;;;;5001379;28;20034;-65
2023/05/16 04:15:05;;;;;;;0.22;0.22;;;9.20;99.90;;;;;;5014517;28;20133;-67
2023/05/16 04:17:31;;;;;;;0.10;0.10;;;9.20;99.90;;;;;;5010814;28;20145;-65
2023/05/16 04:19:57;;;;;;;0.85;0.85;;;9.20;99.90;;;;;;5011111;28;20038;-65
2023/05/16 04:22:23;;;;;;;0.10;0.10;;;9.20;99.90;;;;;;5000251;28;20052;-66
2023/05/16 04:24:49;;;;;;;0.10;0.10;;;9.20;99.90;;;;;;5013355;28;20556;-65
2023/05/16 04:27:15;;;;;;;0.08;0.08;;;9.30;99.90;;;;;;5017070;28;20050;-66
2023/05/16 04:29:41;;;;;;;0.10;0.10;;;9.30;99.90;;;;;;4999352;28;20050;-65
2023/05/16 04:32:07;;;;;;;0.10;0.10;;;9.30;99.90;;;;;;5014872;28;20156;-65
2023/05/16 04:34:36;;;;;;;0.00;0.00;;;9.30;99.90;;;;;;5011200;28;20088;-65
2023/05/16 04:37:06;;;;;;;0.10;0.10;;;9.30;99.90;;;;;;5007707;28;20115;-66
2023/05/16 04:39:33;;;;;;;0.60;0.52;;;9.40;99.90;;;;;;5010192;28;20417;-65
2023/05/16 04:42:00;;;;;;;0.70;0.70;;;9.40;99.90;;;;;;5003259;28;20053;-66
2023/05/16 04:44:26;;;;;;;0.40;0.40;;;9.40;99.90;;;;;;5010720;28;20050;-66
2023/05/16 04:46:54;;;;;;;0.10;0.10;;;9.40;99.90;;;;;;5018049;28;20045;-65
2023/05/16 04:49:20;;;;;;;0.00;0.00;;;9.50;99.90;;;;;;5013351;28;20056;-65
2023/05/16 04:51:47;;;;;;;0.10;0.10;;;9.50;99.90;;;;;;4998205;28;20046;-65
2023/05/16 04:54:12;;;;;;;1.23;1.13;;;9.50;99.90;;;;;;5009112;28;20038;-66
2023/05/16 04:56:38;;;;;;;0.10;0.10;;;9.50;99.90;;;;;;5008742;28;20088;-65
2023/05/16 04:59:04;;;;;;;0.10;0.10;;;9.50;99.90;;;;;;5012827;28;20409;-65
2023/05/16 05:01:30;;;;;;;0.00;0.00;;;9.60;99.90;;;;;;5009843;28;20050;-66
2023/05/16 05:03:55;;;;;;;0.00;0.00;;;9.60;99.90;;;;;;5005958;28;20047;-65
2023/05/16 05:06:21;;;;;;;0.10;0.10;;;9.70;99.90;;;;;;5000486;28;20039;-65
2023/05/16 05:08:46;;;;;;;1.80;0.70;;;9.70;99.90;;;;;;5011137;28;20124;-65
2023/05/16 05:11:12;;;;;;;0.10;0.10;;;9.80;99.90;;;;;;5009616;28;20030;-65
2023/05/16 05:13:38;;;;;;;0.20;0.20;;;9.80;99.90;;;;;;5005960;28;20058;-65
2023/05/16 05:16:04;;;;;;;0.00;0.00;;;9.90;99.90;;;;;;5010312;28;20030;-66
2023/05/16 05:18:30;;;;;;;0.10;0.10;;;9.80;99.90;;;;;;5010144;28;20046;-66
2023/05/16 05:20:56;;;;;;;0.10;0.10;;;9.80;99.90;;;;;;5003028;28;20034;-66
2023/05/16 05:23:22;;;;;;;0.10;0.10;;;9.90;99.90;;;;;;5009090;28;20046;-66
2023/05/16 05:25:48;;;;;;;0.50;0.45;;;10.00;99.90;;;;;;5012205;28;20058;-65
2023/05/16 05:28:14;;;;;;;0.00;0.00;;;9.90;99.90;;;;;;5001561;28;20046;-66
2023/05/16 05:30:40;;;;;;;0.10;0.10;;;10.00;99.90;;;;;;4995002;28;20060;-66
2023/05/16 05:33:05;;;;;;;0.10;0.10;;;10.00;99.90;;;;;;5010781;28;20053;-66
2023/05/16 05:35:31;;;;;;;0.00;0.00;;;10.10;99.90;;;;;;5005530;28;20038;-65
2023/05/16 05:37:56;;;;;;;0.10;0.10;;;10.20;99.90;;;;;;4998677;28;20133;-66
2023/05/16 05:40:22;;;;;;;0.00;0.00;;;10.30;99.90;;;;;;5016416;28;20049;-66
2023/05/16 05:42:47;;;;;;;0.10;0.10;;;10.30;99.90;;;;;;5007216;28;20041;-66
2023/05/16 05:45:14;;;;;;;0.00;0.00;;;10.30;99.90;;;;;;4981436;28;20142;-66
2023/05/16 05:47:40;;;;;;;0.10;0.10;;;10.30;99.90;;;;;;5009651;28;20050;-66
2023/05/16 05:50:07;;;;;;;0.10;0.10;;;10.30;99.90;;;;;;4986344;28;20045;-65
2023/05/16 05:52:32;;;;;;;0.10;0.10;;;10.30;99.90;;;;;;5002450;28;20073;-65
2023/05/16 05:54:58;;;;;;;0.00;0.00;;;10.30;99.90;;;;;;5014557;28;20108;-65
2023/05/16 05:57:24;;;;;;;0.30;0.30;;;10.20;99.90;;;;;;5009322;28;20056;-66
2023/05/16 05:59:50;;;;;;;0.00;0.00;;;10.20;99.90;;;;;;4985883;28;20050;-65
2023/05/16 06:02:16;;;;;;;0.10;0.10;;;10.20;99.90;;;;;;4984863;28;20045;-65
2023/05/16 06:04:42;;;;;;;0.10;0.10;;;10.10;99.90;;;;;;4998732;28;20502;-65
2023/05/16 06:07:07;;;;;;;0.22;0.22;;;10.10;99.90;;;;;;4998277;28;20418;-65
2023/05/16 06:09:33;;;;;;;0.00;0.00;;;10.10;99.90;;;;;;5007255;28;20070;-66
2023/05/16 06:11:58;;;;;;;0.00;0.00;;;10.10;99.90;;;;;;4997325;28;20112;-65
2023/05/16 06:14:24;;;;;;;0.10;0.10;;;10.20;99.90;;;;;;5008348;28;20124;-66
2023/05/16 06:16:50;;;;;;;0.32;0.32;;;10.20;99.90;;;;;;5009375;28;20042;-65
2023/05/16 06:19:16;;;;;;;0.10;0.10;;;10.20;99.90;;;;;;4999909;28;20042;-66
2023/05/16 06:21:42;;;;;;;0.10;0.10;;;10.20;99.90;;;;;;5004941;28;20130;-66
2023/05/16 06:24:08;;;;;;;0.10;0.10;;;10.10;99.90;;;;;;5012210;28;20116;-65
2023/05/16 06:26:35;;;;;;;0.10;0.10;;;10.10;99.90;;;;;;5002866;28;20053;-65
2023/05/16 06:29:00;;;;;;;0.10;0.10;;;10.20;99.90;;;;;;4998309;28;20065;-65
2023/05/16 06:31:26;;;;;;;0.00;0.00;;;10.40;99.90;;;;;;5008451;28;20046;-65
2023/05/16 06:33:51;;;;;;;0.10;0.10;;;10.50;99.90;;;;;;4980909;28;20133;-65
2023/05/16 06:36:17;;;;;;;0.10;0.10;;;10.60;99.90;;;;;;4991779;28;20053;-66
2023/05/16 06:38:43;;;;;;;0.10;0.10;;;10.70;99.90;;;;;;5005349;28;20497;-66
2023/05/16 06:41:08;;;;;;;0.00;0.00;;;10.80;99.90;;;;;;5000349;28;20125;-66
2023/05/16 06:43:34;;;;;;;0.08;0.08;;;10.90;99.90;;;;;;5008407;28;20406;-66
2023/05/16 06:46:00;;;;;;;0.30;0.30;;;11.00;99.90;;;;;;5013938;28;20120;-66
2023/05/16 06:48:25;;;;;;;0.10;0.10;;;11.00;99.90;;;;;;5003410;28;20482;-66
2023/05/16 06:50:51;;;;;;;0.10;0.10;;;11.00;99.90;;;;;;5011454;28;20050;-66
2023/05/16 06:53:17;;;;;;;0.00;0.00;;;11.00;99.90;;;;;;5009232;28;20038;-66
2023/05/16 06:55:43;;;;;;;0.10;0.10;;;11.10;99.90;;;;;;4999699;28;20070;-66
2023/05/16 06:58:09;;;;;;;1.27;1.17;;;11.10;99.90;;;;;;5005613;28;20140;-66
2023/05/16 07:00:35;;;;;;;0.10;0.10;;;11.20;99.90;;;;;;5013832;28;20025;-63
2023/05/16 07:03:02;;;;;;;0.10;0.10;;;11.20;99.90;;;;;;4990862;28;20049;-65
2023/05/16 07:05:28;;;;;;;0.10;0.10;;;11.30;99.90;;;;;;5000369;28;20049;-65
2023/05/16 07:07:53;;;;;;;0.10;0.10;;;11.50;99.90;;;;;;5009086;28;20124;-65
2023/05/16 07:10:19;;;;;;;0.00;0.00;;;11.60;99.90;;;;;;5005765;28;20046;-65
2023/05/16 07:12:45;;;;;;;0.10;0.10;;;11.70;99.90;;;;;;5015423;28;20434;-65
2023/05/16 07:15:11;;;;;;;0.00;0.00;;;11.70;99.90;;;;;;5008749;28;20072;-65
2023/05/16 07:17:37;;;;;;;0.10;0.10;;;11.90;99.90;;;;;;5011395;28;20065;-65
2023/05/16 07:20:03;;;;;;;0.10;0.10;;;11.90;99.90;;;;;;5012665;28;20064;-65
2023/05/16 07:22:29;;;;;;;0.10;0.10;;;12.10;99.90;;;;;;5014508;28;20115;-64
2023/05/16 07:24:59;;;;;;;0.10;0.10;;;12.10;99.90;;;;;;5004855;28;20041;-64
2023/05/16 07:27:25;;;;;;;0.10;0.10;;;12.10;99.90;;;;;;5005599;28;20063;-65
2023/05/16 07:29:51;;;;;;;6.55;1.38;;;12.00;99.90;;;;;;4988669;28;20053;-65
2023/05/16 07:32:17;;;;;;;0.20;0.20;;;11.80;99.90;;;;;;5012031;28;20034;-65
2023/05/16 07:34:42;;;;;;;0.00;0.00;;;11.60;99.90;;;;;;5003537;28;20053;-65
2023/05/16 07:37:11;;;;;;;0.40;0.40;;;11.50;99.90;;;;;;5001387;28;20050;-65
2023/05/16 07:39:40;;;;;;;0.00;0.00;;;11.40;99.90;;;;;;5006831;28;20042;-65
2023/05/16 07:42:07;;;;;;;0.10;0.10;;;11.40;99.90;;;;;;5004806;28;20054;-65
2023/05/16 07:44:32;;;;;;;0.10;0.10;;;11.40;99.90;;;;;;5009145;28;20049;-65
2023/05/16 07:46:58;;;;;;;1.10;0.90;;;11.50;99.90;;;;;;5006841;28;20050;-65
2023/05/16 07:49:24;;;;;;;0.10;0.10;;;11.50;99.90;;;;;;5008548;28;20034;-65
2023/05/16 07:51:49;;;;;;;0.10;0.10;;;11.50;99.90;;;;;;5007953;28;20045;-66
2023/05/16 07:54:15;;;;;;;0.10;0.10;;;11.40;99.90;;;;;;5005701;28;20710;-65
2023/05/16 07:56:41;;;;;;;2.83;0.63;;;11.40;99.90;;;;;;4990770;28;20429;-65
2023/05/16 07:59:06;;;;;;;0.47;0.47;;;11.50;99.90;;;;;;5011177;28;20049;-65
2023/05/16 08:01:32;;;;;;;0.00;0.00;;;11.80;99.90;;;;;;5004850;28;20131;-65
2023/05/16 08:03:58;;;;;;;0.43;0.43;;;11.90;99.90;;;;;;5003199;28;20402;-65
2023/05/16 08:06:24;;;;;;;0.10;0.10;;;12.00;99.90;;;;;;5014158;28;20037;-65
2023/05/16 08:08:49;;;;;;;0.00;0.00;;;12.10;99.90;;;;;;5000509;28;20056;-65
2023/05/16 08:11:15;;;;;;;0.10;0.10;;;12.10;99.90;;;;;;5009009;28;20378;-66
2023/05/16 08:13:41;;;;;;;0.00;0.00;;;12.10;99.90;;;;;;5007512;28;20512;-66
2023/05/16 08:16:06;;;;;;;0.10;0.10;;;12.30;99.90;;;;;;5013504;28;20041;-66
2023/05/16 08:18:32;;;;;;;0.10;0.10;;;12.40;99.90;;;;;;5002171;28;20137;-65
2023/05/16 08:20:58;;;;;;;0.35;0.35;;;12.30;99.90;;;;;;5011411;28;20053;-65
2023/05/16 08:23:23;;;;;;;0.08;0.08;;;12.30;99.90;;;;;;5010266;28;20054;-65
2023/05/16 08:25:49;;;;;;;0.10;0.10;;;12.40;99.90;;;;;;5001884;28;20077;-66
2023/05/16 08:28:15;;;;;;;0.35;0.35;;;12.60;99.90;;;;;;5011044;28;20034;-65
2023/05/16 08:30:40;;;;;;;0.00;0.00;;;12.70;99.90;;;;;;5016305;28;20052;-66
2023/05/16 08:33:06;;;;;;;0.20;0.20;;;12.70;99.90;;;;;;5004857;28;20050;-65
2023/05/16 08:35:34;;;;;;;0.10;0.10;;;12.50;99.90;;;;;;5002929;28;20038;-66
2023/05/16 08:38:00;;;;;;;0.10;0.10;;;12.50;99.90;;;;;;5019002;28;20112;-65
2023/05/16 08:40:26;;;;;;;0.00;0.00;;;12.40;99.90;;;;;;5007085;28;20149;-65
2023/05/16 08:42:52;;;;;;;0.00;0.00;;;12.20;99.90;;;;;;5005639;28;20050;-65
2023/05/16 08:45:18;;;;;;;0.00;0.00;;;12.10;99.90;;;;;;4998642;28;20121;-65
2023/05/16 08:47:46;;;;;;;0.10;0.10;;;12.00;99.90;;;;;;5005658;28;20201;-65
2023/05/16 08:50:13;;;;;;;0.10;0.10;;;12.00;99.90;;;;;;5003646;28;20045;-65
2023/05/16 08:52:42;;;;;;;0.00;0.00;;;12.20;99.90;;;;;;5011153;28;20042;-65
2023/05/16 08:55:09;;;;;;;0.10;0.10;;;12.50;99.90;;;;;;5013569;28;20495;-65
2023/05/16 08:57:35;;;;;;;0.10;0.10;;;12.70;99.90;;;;;;5005296;28;21186;-64
2023/05/16 09:00:06;;;;;;;0.03;0.03;;;12.90;99.90;;;;;;5009930;28;20433;-65
2023/05/16 09:02:32;;;;;;;0.05;0.05;;;12.80;99.90;;;;;;5004715;28;20390;-65
2023/05/16 09:04:58;;;;;;;0.10;0.10;;;12.70;99.90;;;;;;4997603;28;20038;-65
2023/05/16 09:07:24;;;;;;;0.25;0.25;;;12.60;99.90;;;;;;5006270;28;20045;-64
2023/05/16 09:09:49;;;;;;;2.85;0.55;;;12.80;99.90;;;;;;5004109;28;20045;-64
2023/05/16 09:12:15;;;;;;;0.10;0.10;;;13.00;99.90;;;;;;5003672;28;20041;-64
2023/05/16 09:14:41;;;;;;;0.10;0.10;;;13.30;99.90;;;;;;4990498;28;20496;-64
2023/05/16 09:17:08;;;;;;;0.10;0.10;;;13.40;99.90;;;;;;4993833;28;20092;-66
2023/05/16 09:19:42;;;;;;;0.10;0.10;;;13.20;99.90;;;;;;5006228;28;20042;-65
2023/05/16 09:22:12;;;;;;;0.10;0.10;;;13.10;99.90;;;;;;5012065;28;20050;-66
2023/05/16 09:24:47;;;;;;;0.00;0.00;;;13.20;99.90;;;;;;5000151;28;20133;-66
2023/05/16 09:27:14;;;;;;;0.10;0.10;;;13.40;99.90;;;;;;5000090;28;20092;-66
2023/05/16 09:29:41;;;;;;;2.05;1.45;;;13.40;99.90;;;;;;4984530;28;20086;-66
2023/05/16 09:32:17;;;;;;;0.75;0.65;;;13.40;99.90;;;;;;5001783;28;20042;-66
2023/05/16 09:34:48;;;;;;;1.35;0.60;;;13.50;99.90;;;;;;4984467;28;20133;-66
2023/05/16 09:37:14;;;;;;;0.08;0.08;;;13.80;99.90;;;;;;5010616;28;20060;-66
2023/05/16 09:39:47;;;;;;;0.10;0.10;;;13.80;99.90;;;;;;5004088;28;20073;-66
2023/05/16 09:42:18;;;;;;;0.10;0.10;;;13.80;99.90;;;;;;5002470;28;20045;-66
2023/05/16 09:44:51;;;;;;;0.00;0.00;;;13.80;99.90;;;;;;5002901;28;20117;-65
2023/05/16 09:47:19;;;;;;;0.10;0.10;;;13.80;99.90;;;;;;5006856;28;20386;-65
2023/05/16 09:49:46;;;;;;;0.00;0.00;;;13.60;99.90;;;;;;5000653;28;20042;-65
2023/05/16 09:52:13;;;;;;;0.00;0.00;;;13.60;99.90;;;;;;4977127;28;20073;-65
2023/05/16 09:54:39;;;;;;;0.08;0.08;;;13.30;99.90;;;;;;5009944;28;20044;-65
2023/05/16 09:57:04;;;;;;;0.00;0.00;;;13.70;99.90;;;;;;4996466;28;22289;-65
2023/05/16 09:59:35;;;;;;;0.10;0.10;;;14.10;99.90;;;;;;5001424;28;20045;-66
2023/05/16 10:02:03;;;;;;;0.10;0.10;;;14.80;99.90;;;;;;5010437;28;20034;-66
2023/05/16 10:04:30;;;;;;;0.90;0.57;;;15.10;99.90;;;;;;5013242;28;20088;-65
2023/05/16 10:06:56;;;;;;;0.00;0.00;;;15.00;99.90;;;;;;4995948;28;20494;-66
2023/05/16 10:09:23;;;;;;;0.25;0.25;;;14.80;99.90;;;;;;5016691;28;20077;-66
2023/05/16 10:11:52;;;;;;;0.00;0.00;;;14.80;99.90;;;;;;5014673;28;20105;-66
2023/05/16 10:14:18;;;;;;;0.10;0.10;;;15.00;99.90;;;;;;5000187;28;20038;-66
2023/05/16 10:16:46;;;;;;;0.10;0.10;;;15.10;99.90;;;;;;5016586;28;20049;-66
2023/05/16 10:19:12;;;;;;;0.57;0.57;;;14.90;99.90;;;;;;5017063;28;20044;-65
2023/05/16 10:21:40;;;;;;;0.43;0.43;;;14.70;99.90;;;;;;5010741;28;20042;-65
2023/05/16 10:24:10;;;;;;;0.00;0.00;;;14.50;99.90;;;;;;4997444;28;20116;-65
2023/05/16 10:26:36;;;;;;;0.98;0.73;;;14.20;99.90;;;;;;5006337;28;20061;-65
2023/05/16 10:29:02;;;;;;;0.00;0.00;;;14.30;99.90;;;;;;5002458;28;20122;-65
2023/05/16 10:31:28;;;;;;;0.35;0.35;;;14.30;99.90;;;;;;4985397;28;20078;-65
2023/05/16 10:33:56;;;;;;;0.10;0.10;;;13.90;99.90;;;;;;5002925;28;20038;-66
2023/05/16 10:36:22;;;;;;;0.10;0.10;;;13.70;99.90;;;;;;4997437;28;20524;-65
2023/05/16 10:38:49;;;;;;;0.55;0.52;;;13.20;99.90;;;;;;5009788;28;20046;-65
2023/05/16 10:41:15;;;;;;;0.20;0.17;;;13.00;99.90;;;;;;5002206;28;20069;-65
2023/05/16 10:43:45;;;;;;;0.75;0.75;;;13.10;99.90;;;;;;5008662;28;20093;-66
2023/05/16 10:46:11;;;;;;;1.05;0.95;;;13.20;99.90;;;;;;4988421;28;20133;-65
2023/05/16 10:48:41;;;;;;;0.10;0.10;;;13.20;99.90;;;;;;4990785;28;20088;-66
2023/05/16 10:51:21;;;;;;;0.10;0.10;;;13.30;99.90;;;;;;4998834;28;20042;-66
2023/05/16 10:53:50;;;;;;;0.10;0.10;;;13.90;99.90;;;;;;4986801;28;20053;-66
2023/05/16 10:56:25;;;;;;;0.77;0.52;;;13.90;99.90;;;;;;5009697;28;20049;-66
2023/05/16 10:58:54;;;;;;;1.08;0.65;;;14.10;99.90;;;;;;4988228;28;20042;-66
2023/05/16 11:01:23;;;;;;;0.00;0.00;;;14.50;99.90;;;;;;5005931;28;20052;-66
2023/05/16 11:06:26;;;;;;;0.00;0.00;;;14.90;99.90;;;;;;4987160;28;20046;-66
2023/05/16 11:09:18;;;;;;;0.10;0.10;;;15.20;99.90;;;;;;5005112;28;20053;-66
2023/05/16 11:12:03;;;;;;;0.30;0.30;;;15.70;99.90;;;;;;5002747;28;20169;-66
2023/05/16 11:14:31;;;;;;;0.82;0.82;;;15.70;99.90;;;;;;4992028;28;20061;-66
2023/05/16 11:17:11;;;;;;;0.03;0.03;;;16.00;99.90;;;;;;4999189;28;20057;-67
2023/05/16 11:19:46;;;;;;;0.10;0.10;;;15.90;99.90;;;;;;5001272;28;20042;-66
2023/05/16 11:22:15;;;;;;;0.08;0.08;;;15.90;99.90;;;;;;5002845;28;20049;-66
2023/05/16 11:24:56;;;;;;;0.00;0.00;;;15.80;99.90;;;;;;4998247;28;20409;-66
2023/05/16 11:27:23;;;;;;;0.30;0.30;;;16.10;99.90;;;;;;4990885;28;20049;-66
2023/05/16 11:29:49;;;;;;;0.10;0.10;;;16.10;99.90;;;;;;4977982;28;20046;-66
2023/05/16 11:32:19;;;;;;;0.10;0.10;;;16.30;99.90;;;;;;4990326;28;20122;-66
2023/05/16 11:34:46;;;;;;;0.00;0.00;;;16.20;99.90;;;;;;4987043;28;20054;-66
2023/05/16 11:37:13;;;;;;;0.00;0.00;;;16.50;99.90;;;;;;4993401;28;20486;-66
2023/05/16 11:39:39;;;;;;;0.00;0.00;;;16.80;99.90;;;;;;4979523;28;20054;-66
2023/05/16 11:42:05;;;;;;;0.20;0.20;;;16.60;99.90;;;;;;4995026;28;20038;-66
2023/05/16 11:44:31;;;;;;;0.10;0.10;;;16.80;99.90;;;;;;4984907;28;20054;-66
2023/05/16 11:46:56;;;;;;;0.10;0.10;;;16.90;99.90;;;;;;4983857;28;20529;-66
2023/05/16 11:49:22;;;;;;;0.10;0.10;;;17.00;99.90;;;;;;4990945;28;20042;-66
2023/05/16 11:51:50;;;;;;;0.10;0.10;;;16.90;99.90;;;;;;4984508;28;20046;-66
2023/05/16 11:54:18;;;;;;;0.20;0.20;;;16.90;99.90;;;;;;4992054;28;20061;-66
2023/05/16 11:56:44;;;;;;;0.00;0.00;;;16.90;99.90;;;;;;4993704;28;20170;-66
2023/05/16 11:59:10;;;;;;;0.20;0.20;;;17.10;99.90;;;;;;4976913;28;20165;-66
2023/05/16 12:01:37;;;;;;;0.00;0.00;;;17.30;99.90;;;;;;4985566;28;20035;-66
2023/05/16 12:04:11;;;;;;;0.00;0.00;;;17.40;99.90;;;;;;4981644;28;20035;-66
2023/05/16 12:06:37;;;;;;;4.40;1.75;;;17.30;99.90;;;;;;4984773;28;20038;-65
2023/05/16 12:09:09;;;;;;;0.00;0.00;;;17.00;99.90;;;;;;4984333;28;20038;-65
2023/05/16 12:11:41;;;;;;;0.40;0.40;;;16.80;99.90;;;;;;4984530;28;20510;-65
2023/05/16 12:14:09;;;;;;;0.60;0.60;;;16.70;99.90;;;;;;4997723;28;20432;-65
2023/05/16 12:16:36;;;;;;;0.00;0.00;;;16.90;99.90;;;;;;4984332;28;20191;-65
2023/05/16 12:19:03;;;;;;;0.90;0.35;;;16.80;99.90;;;;;;4984645;28;20045;-65
2023/05/16 12:21:30;;;;;;;0.32;0.32;;;16.50;99.90;;;;;;4991088;28;20506;-64
2023/05/16 12:23:59;;;;;;;0.17;0.17;;;16.40;99.90;;;;;;4996342;28;20050;-65
2023/05/16 12:26:32;;;;;;;1.20;0.85;;;16.20;99.90;;;;;;4990723;28;20061;-65
2023/05/16 12:29:01;;;;;;;0.10;0.10;;;16.00;99.90;;;;;;5005457;28;20077;-65
2023/05/16 12:31:29;;;;;;;0.00;0.00;;;16.10;99.90;;;;;;5011747;28;20069;-65
2023/05/16 12:33:55;;;;;;;1.98;1.75;;;16.20;99.90;;;;;;5009222;28;20117;-65
2023/05/16 12:36:22;;;;;;;0.13;0.13;;;16.10;99.90;;;;;;5003659;28;20174;-64
2023/05/16 12:38:48;;;;;;;0.05;0.05;;;16.10;99.90;;;;;;5012784;28;20049;-65
2023/05/16 12:41:23;;;;;;;0.00;0.00;;;16.20;99.90;;;;;;5007029;28;20148;-65
2023/05/16 12:43:49;;;;;;;0.10;0.10;;;16.40;99.90;;;;;;5009309;28;20130;-64
2023/05/16 12:46:15;;;;;;;0.00;0.00;;;16.60;99.90;;;;;;5006054;28;20034;-65
2023/05/16 12:48:42;;;;;;;0.00;0.00;;;16.40;99.90;;;;;;5005321;28;20061;-65
2023/05/16 12:51:12;;;;;;;0.10;0.10;;;16.40;99.90;;;;;;5010099;28;20397;-65
2023/05/16 12:53:42;;;;;;;0.05;0.05;;;16.30;99.90;;;;;;5005923;28;20061;-65